createdAt,value
2019-01-14T00:00:03.213Z,16.02
2019-01-14T00:02:19.296Z,32.20
2019-01-14T00:04:35.720Z,23.03
2019-01-14T00:06:52.186Z,21.80
2019-01-14T00:09:08.005Z,19.67
2019-01-14T00:11:24.129Z,30.20
2019-01-14T00:13:39.895Z,21.20
2019-01-14T00:15:56.133Z,21.37
2019-01-14T00:18:11.867Z,23.53
2019-01-14T00:20:27.512Z,18.03
2019-01-14T00:22:44.003Z,27.23
2019-01-14T00:24:59.898Z,22.50
2019-01-14T00:27:16.457Z,22.20
2019-01-14T00:29:32.892Z,26.75
2019-01-14T00:31:48.657Z,22.90
2019-01-14T00:34:04.753Z,30.13
2019-01-14T00:36:21.070Z,22.50
2019-01-14T00:38:37.311Z,28.17
2019-01-14T00:40:53.625Z,18.73
2019-01-14T00:43:09.698Z,24.12
2019-01-14T00:45:25.991Z,19.55
2019-01-14T00:47:42.810Z,19.87
2019-01-14T00:49:58.770Z,25.12
2019-01-14T00:52:14.752Z,19.40
2019-01-14T00:54:30.358Z,18.73
2019-01-14T00:56:46.090Z,30.10
2019-01-14T00:59:03.117Z,18.35
2019-01-14T01:01:19.833Z,15.30
2019-01-14T01:03:36.725Z,12.60
2019-01-14T01:05:53.165Z,19.53
2019-01-14T01:08:09.227Z,17.43
2019-01-14T01:10:25.160Z,21.40
2019-01-14T01:12:41.472Z,20.00
2019-01-14T01:14:57.650Z,17.77
2019-01-14T01:17:14.489Z,23.22
2019-01-14T01:19:30.221Z,13.23
2019-01-14T01:21:47.023Z,16.50
2019-01-14T01:24:03.568Z,17.27
2019-01-14T01:26:19.661Z,13.97
2019-01-14T01:28:36.213Z,11.93
2019-01-14T01:30:52.464Z,15.10
2019-01-14T01:33:08.752Z,15.33
2019-01-14T01:35:25.017Z,16.17
2019-01-14T01:37:41.409Z,24.92
2019-01-14T01:39:57.837Z,16.03
2019-01-14T01:42:14.322Z,31.17
2019-01-14T01:44:30.085Z,17.23
2019-01-14T01:46:46.153Z,12.63
2019-01-14T01:49:02.473Z,15.43
2019-01-14T01:51:19.134Z,16.42
2019-01-14T01:53:35.553Z,18.80
2019-01-14T01:55:51.753Z,10.50
2019-01-14T01:58:07.941Z,15.30
2019-01-14T02:00:25.133Z,15.60
2019-01-14T02:02:41.469Z,16.53
2019-01-14T02:04:57.365Z,15.13
2019-01-14T02:07:13.813Z,13.70
2019-01-14T02:09:29.357Z,24.73
2019-01-14T02:11:46.235Z,20.87
2019-01-14T02:14:02.661Z,15.73
2019-01-14T02:16:19.086Z,13.40
2019-01-14T02:18:35.584Z,22.90
2019-01-14T02:20:51.865Z,14.67
2019-01-14T02:23:08.126Z,26.40
2019-01-14T02:25:24.033Z,20.10
2019-01-14T02:27:40.945Z,12.20
2019-01-14T02:29:57.613Z,16.07
2019-01-14T02:32:14.271Z,19.95
2019-01-14T02:34:30.160Z,21.10
2019-01-14T02:36:48.632Z,13.90
2019-01-14T02:39:06.093Z,15.27
2019-01-14T02:41:22.477Z,15.13
2019-01-14T02:43:38.948Z,23.27
2019-01-14T02:45:56.041Z,16.25
2019-01-14T02:48:12.085Z,11.00
2019-01-14T02:50:28.055Z,10.88
2019-01-14T02:52:44.222Z,15.40
2019-01-14T02:55:00.898Z,12.58
2019-01-14T02:57:17.453Z,18.10
2019-01-14T02:59:33.147Z,24.63
2019-01-14T03:01:48.793Z,12.13
2019-01-14T03:04:04.760Z,11.13
2019-01-14T03:06:20.825Z,9.77
2019-01-14T03:08:37.076Z,8.60
2019-01-14T03:10:52.745Z,12.70
2019-01-14T03:13:08.977Z,16.35
2019-01-14T03:15:25.608Z,8.93
2019-01-14T03:17:41.564Z,17.93
2019-01-14T03:19:58.704Z,12.23
2019-01-14T03:22:14.747Z,12.97
2019-01-14T03:24:30.917Z,18.47
2019-01-14T03:26:47.305Z,11.03
2019-01-14T03:29:03.926Z,9.90
2019-01-14T03:31:20.517Z,13.13
2019-01-14T03:33:36.556Z,11.60
2019-01-14T03:35:53.074Z,15.15
2019-01-14T03:38:09.214Z,14.40
2019-01-14T03:40:25.737Z,9.47
2019-01-14T03:42:42.043Z,15.03
2019-01-14T03:44:58.430Z,18.60
2019-01-14T03:47:14.634Z,10.77
2019-01-14T03:49:30.625Z,8.97
2019-01-14T03:51:46.580Z,13.33
2019-01-14T03:54:02.969Z,8.40
2019-01-14T03:56:18.937Z,4.90
2019-01-14T03:58:34.832Z,8.93
2019-01-14T04:00:50.801Z,11.53
2019-01-14T04:03:07.134Z,12.23
2019-01-14T04:05:23.336Z,7.15
2019-01-14T04:07:39.086Z,14.75
2019-01-14T04:09:55.639Z,7.58
2019-01-14T04:12:11.949Z,10.00
2019-01-14T04:14:27.528Z,12.53
2019-01-14T04:16:43.977Z,7.77
2019-01-14T04:19:00.195Z,8.07
2019-01-14T04:21:16.252Z,13.60
2019-01-14T04:23:32.819Z,10.93
2019-01-14T04:25:49.334Z,6.97
2019-01-14T04:28:05.592Z,12.85
2019-01-14T04:30:22.032Z,9.33
2019-01-14T04:32:38.572Z,6.27
2019-01-14T04:34:55.592Z,12.65
2019-01-14T04:37:12.527Z,9.00
2019-01-14T04:39:28.985Z,10.07
2019-01-14T04:41:45.895Z,13.43
2019-01-14T04:44:02.097Z,8.83
2019-01-14T04:46:18.160Z,9.80
2019-01-14T04:48:34.306Z,6.80
2019-01-14T04:50:50.749Z,11.17
2019-01-14T04:53:06.963Z,12.17
2019-01-14T04:55:22.932Z,7.40
2019-01-14T04:57:39.699Z,9.50
2019-01-14T04:59:55.712Z,13.10
2019-01-14T05:02:12.028Z,10.43
2019-01-14T05:04:28.477Z,11.00
2019-01-14T05:06:44.354Z,10.23
2019-01-14T05:09:00.896Z,15.80
2019-01-14T05:11:16.596Z,18.00
2019-01-14T05:13:32.805Z,6.60
2019-01-14T05:15:48.955Z,17.73
2019-01-14T05:18:05.041Z,13.30
2019-01-14T05:20:21.960Z,12.73
2019-01-14T05:22:38.276Z,15.23
2019-01-14T05:24:54.134Z,14.40
2019-01-14T05:27:10.773Z,8.33
2019-01-14T05:29:27.056Z,10.97
2019-01-14T05:31:43.657Z,12.47
2019-01-14T05:34:00.372Z,16.97
2019-01-14T05:36:16.860Z,10.20
2019-01-14T05:38:32.800Z,16.03
2019-01-14T05:40:48.770Z,12.95
2019-01-14T05:43:04.903Z,8.33
2019-01-14T05:45:21.894Z,11.12
2019-01-14T05:47:37.983Z,8.78
2019-01-14T05:49:54.504Z,13.78
2019-01-14T05:52:10.256Z,12.33
2019-01-14T05:54:26.334Z,13.33
2019-01-14T05:56:42.343Z,10.30
2019-01-14T05:58:58.794Z,10.73
2019-01-14T06:01:15.113Z,12.93
2019-01-14T06:03:30.972Z,11.95
2019-01-14T06:05:46.716Z,14.27
2019-01-14T06:08:02.977Z,12.77
2019-01-14T06:10:19.204Z,11.37
2019-01-14T06:12:35.365Z,14.53
2019-01-14T06:14:52.160Z,8.28
2019-01-14T06:17:08.233Z,16.03
2019-01-14T06:19:24.531Z,9.30
2019-01-14T06:21:40.235Z,11.85
2019-01-14T06:23:54.926Z,9.47
2019-01-14T06:26:18.564Z,6.83
2019-01-14T06:28:41.728Z,8.87
2019-01-14T06:31:05.672Z,11.25
2019-01-14T06:33:22.073Z,11.65
2019-01-14T06:35:38.481Z,9.43
2019-01-14T06:37:54.417Z,13.10
2019-01-14T06:40:11.201Z,10.57
2019-01-14T06:42:27.893Z,17.53
2019-01-14T06:44:44.558Z,6.33
2019-01-14T06:47:00.952Z,9.97
2019-01-14T06:49:16.851Z,10.78
2019-01-14T06:51:32.712Z,10.60
2019-01-14T06:53:49.589Z,12.17
2019-01-14T06:56:05.417Z,6.37
2019-01-14T06:58:21.533Z,9.00
2019-01-14T07:00:38.087Z,15.73
2019-01-14T07:02:54.237Z,8.60
2019-01-14T07:05:10.497Z,5.63
2019-01-14T07:07:27.586Z,8.90
2019-01-14T07:09:44.000Z,6.47
2019-01-14T07:11:59.981Z,7.83
2019-01-14T07:14:16.781Z,8.47
2019-01-14T07:16:32.445Z,12.10
2019-01-14T07:18:48.702Z,11.20
2019-01-14T07:21:05.466Z,10.55
2019-01-14T07:23:21.990Z,10.93
2019-01-14T07:25:37.700Z,10.27
2019-01-14T07:27:53.521Z,9.68
2019-01-14T07:30:09.690Z,12.30
2019-01-14T07:32:26.057Z,11.00
2019-01-14T07:34:42.825Z,9.50
2019-01-14T07:36:58.895Z,7.60
2019-01-14T07:39:15.401Z,10.33
2019-01-14T07:41:31.667Z,9.20
2019-01-14T07:43:48.348Z,9.73
2019-01-14T07:46:04.413Z,9.37
2019-01-14T07:48:20.747Z,6.93
2019-01-14T07:50:37.537Z,6.33
2019-01-14T07:52:53.409Z,8.80
2019-01-14T07:55:10.328Z,6.53
2019-01-14T07:57:27.135Z,10.53
2019-01-14T07:59:43.544Z,9.10
2019-01-14T08:01:59.221Z,6.87
2019-01-14T08:04:15.600Z,10.13
2019-01-14T08:06:32.012Z,9.00
2019-01-14T08:08:48.177Z,10.98
2019-01-14T08:11:04.700Z,12.20
2019-01-14T08:13:20.533Z,9.35
2019-01-14T08:15:36.525Z,9.30
2019-01-14T08:17:52.537Z,12.53
2019-01-14T08:20:07.954Z,9.10
2019-01-14T08:22:24.973Z,12.23
2019-01-14T08:24:41.100Z,10.37
2019-01-14T08:26:57.641Z,8.10
2019-01-14T08:29:13.857Z,11.40
2019-01-14T08:31:30.666Z,11.70
2019-01-14T08:33:46.702Z,13.53
2019-01-14T08:36:03.339Z,6.97
2019-01-14T08:38:21.347Z,8.00
2019-01-14T08:40:37.385Z,6.60
2019-01-14T08:42:53.777Z,8.23
2019-01-14T08:45:09.796Z,11.10
2019-01-14T08:47:26.396Z,5.80
2019-01-14T08:49:42.718Z,7.23
2019-01-14T08:51:59.042Z,12.20
2019-01-14T08:54:15.493Z,8.40
2019-01-14T08:56:31.627Z,7.53
2019-01-14T08:58:48.000Z,7.13
2019-01-14T09:01:05.050Z,9.27
2019-01-14T09:03:21.575Z,10.70
2019-01-14T09:05:37.401Z,9.60
2019-01-14T09:07:54.558Z,10.88
2019-01-14T09:10:11.201Z,8.97
2019-01-14T09:12:27.546Z,8.67
2019-01-14T09:14:43.750Z,3.72
2019-01-14T09:16:59.714Z,6.33
2019-01-14T09:19:16.317Z,11.33
2019-01-14T09:21:32.528Z,12.43
2019-01-14T09:23:48.724Z,11.78
2019-01-14T09:26:05.339Z,10.13
2019-01-14T09:28:21.470Z,13.20
2019-01-14T09:30:37.144Z,7.83
2019-01-14T09:32:53.749Z,7.07
2019-01-14T09:35:10.138Z,7.40
2019-01-14T09:37:26.200Z,15.57
2019-01-14T09:39:42.690Z,11.60
2019-01-14T09:41:59.709Z,6.22
2019-01-14T09:44:15.816Z,8.55
2019-01-14T09:46:32.199Z,10.40
2019-01-14T09:48:47.822Z,7.13
2019-01-14T09:51:04.028Z,8.10
2019-01-14T09:53:20.606Z,9.07
2019-01-14T09:55:36.628Z,14.30
2019-01-14T09:57:53.125Z,7.85
2019-01-14T10:00:10.155Z,9.03
2019-01-14T10:02:26.383Z,10.57
2019-01-14T10:04:42.386Z,13.50
2019-01-14T10:06:58.683Z,5.60
2019-01-14T10:09:14.622Z,6.28
2019-01-14T10:11:30.697Z,7.67
2019-01-14T10:13:47.165Z,6.33
2019-01-14T10:16:03.339Z,7.00
2019-01-14T10:18:20.105Z,5.67
2019-01-14T10:20:36.448Z,3.67
2019-01-14T10:22:53.169Z,6.13
2019-01-14T10:25:10.140Z,6.07
2019-01-14T10:27:26.055Z,4.63
2019-01-14T10:29:42.525Z,5.57
2019-01-14T10:31:59.013Z,7.10
2019-01-14T10:34:15.861Z,4.27
2019-01-14T10:36:32.284Z,5.40
2019-01-14T10:38:50.407Z,6.40
2019-01-14T10:41:06.772Z,7.93
2019-01-14T10:43:22.719Z,4.33
2019-01-14T10:45:38.777Z,6.73
2019-01-14T10:47:55.694Z,6.40
2019-01-14T10:50:11.932Z,5.20
2019-01-14T10:52:28.421Z,6.87
2019-01-14T10:54:45.019Z,7.33
2019-01-14T10:57:01.436Z,6.35
2019-01-14T10:59:17.358Z,8.73
2019-01-14T11:01:33.838Z,10.33
2019-01-14T11:03:49.670Z,10.83
2019-01-14T11:06:05.898Z,5.33
2019-01-14T11:08:22.204Z,8.20
2019-01-14T11:10:38.164Z,6.15
2019-01-14T11:12:55.164Z,7.03
2019-01-14T11:15:11.664Z,8.15
2019-01-14T11:17:27.436Z,8.60
2019-01-14T11:19:44.420Z,5.60
2019-01-14T11:22:00.658Z,8.70
2019-01-14T11:24:16.566Z,6.20
2019-01-14T11:26:32.551Z,6.43
2019-01-14T11:28:49.268Z,6.75
2019-01-14T11:31:06.597Z,8.95
2019-01-14T11:33:23.189Z,4.37
2019-01-14T11:35:40.229Z,4.27
2019-01-14T11:37:56.160Z,3.03
2019-01-14T11:40:11.791Z,5.10
2019-01-14T11:42:27.361Z,2.20
2019-01-14T11:44:43.443Z,5.75
2019-01-14T11:46:59.806Z,4.03
2019-01-14T11:49:16.034Z,4.63
2019-01-14T11:51:32.326Z,5.93
2019-01-14T11:53:47.909Z,5.30
2019-01-14T11:56:04.447Z,3.67
2019-01-14T11:58:20.369Z,4.40
2019-01-14T12:00:37.044Z,3.83
2019-01-14T12:02:53.496Z,7.70
2019-01-14T12:05:09.058Z,3.47
2019-01-14T12:07:25.021Z,4.57
2019-01-14T12:09:41.566Z,1.73
2019-01-14T12:11:57.420Z,4.07
2019-01-14T12:14:13.790Z,4.70
2019-01-14T12:16:30.718Z,5.33
2019-01-14T12:18:47.360Z,5.30
2019-01-14T12:21:03.548Z,2.30
2019-01-14T12:23:19.551Z,4.10
2019-01-14T12:25:35.841Z,4.93
2019-01-14T12:27:51.719Z,1.97
2019-01-14T12:30:07.889Z,3.03
2019-01-14T12:32:24.201Z,4.60
2019-01-14T12:34:39.705Z,5.10
2019-01-14T12:36:56.862Z,3.30
2019-01-14T12:39:19.296Z,6.93
2019-01-14T12:41:30.809Z,5.00
2019-01-14T12:43:46.643Z,6.00
2019-01-14T12:46:03.321Z,3.90
2019-01-14T12:48:20.114Z,8.60
2019-01-14T12:50:36.272Z,7.58
2019-01-14T12:52:53.273Z,4.20
2019-01-14T12:55:09.432Z,4.50
2019-01-14T12:57:25.977Z,4.95
2019-01-14T12:59:42.149Z,7.00
2019-01-14T13:01:58.149Z,4.03
2019-01-14T13:04:14.210Z,6.93
2019-01-14T13:06:30.266Z,4.50
2019-01-14T13:08:45.993Z,4.83
2019-01-14T13:11:02.871Z,5.45
2019-01-14T13:13:18.741Z,6.10
2019-01-14T13:15:35.001Z,7.17
2019-01-14T13:17:51.246Z,4.03
2019-01-14T13:20:08.106Z,4.30
2019-01-14T13:22:24.717Z,6.43
2019-01-14T13:24:40.902Z,4.77
2019-01-14T13:26:57.221Z,5.90
2019-01-14T13:29:15.284Z,3.30
2019-01-14T13:31:31.285Z,5.67
2019-01-14T13:33:47.886Z,4.30
2019-01-14T13:36:03.815Z,7.53
2019-01-14T13:38:20.285Z,6.30
2019-01-14T13:40:37.000Z,17.80
2019-01-14T13:42:52.501Z,5.47
2019-01-14T13:45:08.265Z,4.80
2019-01-14T13:47:23.830Z,5.70
2019-01-14T13:49:40.117Z,6.50
2019-01-14T13:51:56.197Z,4.83
2019-01-14T13:54:11.896Z,4.60
2019-01-14T13:56:28.479Z,3.10
2019-01-14T13:58:45.293Z,6.33
2019-01-14T14:01:01.645Z,3.60
2019-01-14T14:03:18.257Z,3.87
2019-01-14T14:05:34.051Z,9.28
2019-01-14T14:07:50.567Z,3.50
2019-01-14T14:10:07.121Z,6.05
2019-01-14T14:12:23.416Z,12.10
2019-01-14T14:14:39.516Z,9.23
2019-01-14T14:16:55.225Z,9.20
2019-01-14T14:19:11.313Z,10.10
2019-01-14T14:21:27.576Z,8.40
2019-01-14T14:23:43.810Z,6.90
2019-01-14T14:26:00.582Z,4.93
2019-01-14T14:28:16.985Z,8.63
2019-01-14T14:30:33.088Z,6.07
2019-01-14T14:32:49.260Z,8.70
2019-01-14T14:35:05.661Z,7.93
2019-01-14T14:37:21.550Z,10.43
2019-01-14T14:39:37.668Z,9.53
2019-01-14T14:41:53.585Z,8.73
2019-01-14T14:44:09.087Z,6.73
2019-01-14T14:46:24.732Z,5.37
2019-01-14T14:48:40.236Z,3.43
2019-01-14T14:50:56.697Z,6.90
2019-01-14T14:53:13.382Z,8.70
2019-01-14T14:55:30.337Z,11.88
2019-01-14T14:57:46.656Z,4.43
2019-01-14T15:00:02.973Z,6.80
2019-01-14T15:02:18.941Z,7.93
2019-01-14T15:04:33.780Z,9.00
2019-01-14T15:06:56.888Z,9.60
2019-01-14T15:09:20.414Z,8.73
2019-01-14T15:11:43.779Z,7.70
2019-01-14T15:14:07.894Z,6.67
2019-01-14T15:16:32.300Z,9.73
2019-01-14T15:21:40.362Z,11.13
2019-01-14T15:24:03.704Z,9.03
2019-01-14T15:26:27.496Z,10.10
2019-01-14T15:28:50.805Z,14.37
2019-01-14T15:33:57.625Z,4.87
2019-01-14T15:36:20.969Z,7.80
2019-01-14T15:38:56.208Z,8.40
2019-01-14T15:43:36.353Z,6.43
2019-01-14T15:45:52.432Z,13.28
2019-01-14T15:48:08.406Z,13.63
2019-01-14T15:50:24.964Z,7.45
2019-01-14T15:52:41.344Z,7.73
2019-01-14T15:54:57.569Z,11.70
2019-01-14T15:57:14.224Z,9.57
2019-01-14T15:59:29.753Z,6.73
2019-01-14T16:01:46.063Z,12.65
2019-01-14T16:04:02.691Z,9.50
2019-01-14T16:06:19.713Z,16.20
2019-01-14T16:08:36.044Z,9.23
2019-01-14T16:10:52.559Z,5.60
2019-01-14T16:13:09.024Z,6.03
2019-01-14T16:15:26.013Z,12.40
2019-01-14T16:17:41.901Z,5.47
2019-01-14T16:19:58.345Z,7.47
2019-01-14T16:22:14.797Z,12.50
2019-01-14T16:24:30.917Z,6.60
2019-01-14T16:26:46.847Z,9.28
2019-01-14T16:29:03.305Z,10.53
2019-01-14T16:31:19.877Z,11.00
2019-01-14T16:33:36.360Z,9.90
2019-01-14T16:35:52.549Z,13.30
2019-01-14T16:38:09.192Z,11.00
2019-01-14T16:40:25.156Z,6.80
2019-01-14T16:42:42.139Z,11.40
2019-01-14T16:44:58.618Z,9.93
2019-01-14T16:47:15.393Z,9.83
2019-01-14T16:49:31.537Z,8.63
2019-01-14T16:51:48.094Z,7.67
2019-01-14T16:54:04.265Z,9.53
2019-01-14T16:56:20.010Z,15.40
2019-01-14T16:58:36.260Z,9.60
2019-01-14T17:00:52.499Z,7.20
2019-01-14T17:03:08.879Z,12.78
2019-01-14T17:05:25.413Z,10.67
2019-01-14T17:07:41.082Z,9.23
2019-01-14T17:09:58.134Z,6.47
2019-01-14T17:12:15.234Z,6.90
2019-01-14T17:14:31.245Z,9.67
2019-01-14T17:16:47.449Z,11.90
2019-01-14T17:19:03.245Z,8.23
2019-01-14T17:21:20.277Z,8.73
2019-01-14T17:23:37.005Z,6.30
2019-01-14T17:25:53.223Z,7.03
2019-01-14T17:28:09.379Z,4.77
2019-01-14T17:30:25.184Z,10.13
2019-01-14T17:32:41.040Z,10.00
2019-01-14T17:34:57.209Z,8.60
2019-01-14T17:37:13.830Z,10.60
2019-01-14T17:39:30.063Z,4.70
2019-01-14T17:41:48.113Z,6.85
2019-01-14T17:44:03.885Z,7.08
2019-01-14T17:46:19.844Z,13.13
2019-01-14T17:48:35.524Z,7.30
2019-01-14T17:50:52.444Z,5.37
2019-01-14T17:53:08.601Z,11.30
2019-01-14T17:55:25.069Z,11.30
2019-01-14T17:57:40.723Z,9.40
2019-01-14T17:59:56.356Z,13.20
2019-01-14T18:02:13.426Z,9.53
2019-01-14T18:04:29.646Z,10.90
2019-01-14T18:06:46.021Z,9.78
2019-01-14T18:09:02.370Z,10.07
2019-01-14T18:11:18.031Z,13.20
2019-01-14T18:13:35.392Z,7.03
2019-01-14T18:15:51.192Z,8.03
2019-01-14T18:18:07.437Z,5.80
2019-01-14T18:20:23.845Z,7.87
2019-01-14T18:22:40.496Z,9.90
2019-01-14T18:24:57.204Z,8.37
2019-01-14T18:27:13.206Z,8.73
2019-01-14T18:29:29.657Z,15.73
2019-01-14T18:31:46.079Z,7.80
2019-01-14T18:34:02.046Z,13.53
2019-01-14T18:36:17.932Z,10.67
2019-01-14T18:38:35.088Z,6.87
2019-01-14T18:40:52.190Z,7.47
2019-01-14T18:43:08.345Z,11.73
2019-01-14T18:45:24.847Z,7.43
2019-01-14T18:47:40.597Z,8.90
2019-01-14T18:49:56.821Z,13.00
2019-01-14T18:52:13.009Z,8.50
2019-01-14T18:54:29.482Z,7.17
2019-01-14T18:56:45.413Z,8.03
2019-01-14T18:59:01.382Z,6.30
2019-01-14T19:01:17.169Z,6.90
2019-01-14T19:03:33.050Z,10.67
2019-01-14T19:05:49.652Z,11.50
2019-01-14T19:08:06.296Z,9.55
2019-01-14T19:10:22.490Z,8.80
2019-01-14T19:12:39.013Z,7.83
2019-01-14T19:14:54.977Z,6.37
2019-01-14T19:17:10.772Z,6.53
2019-01-14T19:19:27.762Z,9.10
2019-01-14T19:21:44.134Z,9.10
2019-01-14T19:24:00.964Z,13.20
2019-01-14T19:26:17.335Z,10.33
2019-01-14T19:28:33.401Z,10.80
2019-01-14T19:30:50.239Z,6.37
2019-01-14T19:33:06.432Z,3.60
2019-01-14T19:35:22.961Z,8.63
2019-01-14T19:37:39.817Z,7.90
2019-01-14T19:39:55.621Z,11.22
2019-01-14T19:42:12.295Z,12.87
2019-01-14T19:44:28.542Z,8.90
2019-01-14T19:46:44.678Z,5.70
2019-01-14T19:49:01.201Z,9.33
2019-01-14T19:51:17.222Z,7.33
2019-01-14T19:53:34.241Z,8.90
2019-01-14T19:55:49.925Z,11.90
2019-01-14T19:58:05.097Z,11.13
2019-01-14T20:03:14.107Z,8.63
2019-01-14T20:05:37.879Z,10.93
2019-01-14T20:10:46.004Z,5.93
2019-01-14T20:13:29.088Z,11.87
2019-01-14T20:18:21.994Z,10.37
2019-01-14T20:20:45.744Z,10.43
2019-01-14T20:23:09.116Z,16.00
2019-01-14T20:25:33.203Z,11.10
2019-01-14T20:27:56.565Z,13.17
2019-01-14T20:33:06.184Z,12.25
2019-01-14T20:35:30.930Z,14.10
2019-01-14T20:38:05.983Z,10.68
2019-01-14T20:40:19.620Z,11.83
2019-01-14T20:45:14.432Z,13.10
2019-01-14T20:47:37.932Z,12.40
2019-01-14T20:50:02.228Z,15.63
2019-01-14T20:54:49.217Z,12.80
2019-01-14T20:57:06.169Z,11.63
2019-01-14T20:59:22.837Z,9.50
2019-01-14T21:01:39.487Z,12.97
2019-01-14T21:03:55.979Z,10.60
2019-01-14T21:06:12.278Z,9.57
2019-01-14T21:08:28.469Z,14.47
2019-01-14T21:10:44.737Z,13.43
2019-01-14T21:13:01.216Z,6.17
2019-01-14T21:15:17.629Z,15.87
2019-01-14T21:17:33.962Z,16.35
2019-01-14T21:19:50.126Z,17.93
2019-01-14T21:22:06.367Z,12.33
2019-01-14T21:24:23.093Z,9.00
2019-01-14T21:26:39.441Z,12.77
2019-01-14T21:28:55.662Z,16.93
2019-01-14T21:31:11.868Z,12.33
2019-01-14T21:33:27.953Z,7.83
2019-01-14T21:35:44.445Z,11.73
2019-01-14T21:38:00.612Z,13.50
2019-01-14T21:40:17.049Z,11.43
2019-01-14T21:42:33.229Z,8.00
2019-01-14T21:44:49.851Z,11.12
2019-01-14T21:47:06.526Z,12.30
2019-01-14T21:49:23.002Z,13.43
2019-01-14T21:51:39.712Z,9.83
2019-01-14T21:53:55.495Z,9.67
2019-01-14T21:56:11.639Z,9.25
2019-01-14T21:58:27.956Z,12.50
2019-01-14T22:00:44.069Z,9.73
2019-01-14T22:03:00.249Z,13.53
2019-01-14T22:05:16.004Z,18.17
2019-01-14T22:07:31.769Z,7.77
2019-01-14T22:09:47.925Z,11.83
2019-01-14T22:12:03.733Z,11.97
2019-01-14T22:14:19.349Z,13.23
2019-01-14T22:16:35.017Z,17.23
2019-01-14T22:18:51.242Z,10.68
2019-01-14T22:21:07.179Z,9.43
2019-01-14T22:23:23.341Z,15.08
2019-01-14T22:25:39.616Z,10.57
2019-01-14T22:27:55.992Z,12.30
2019-01-14T22:30:11.671Z,13.90
2019-01-14T22:32:28.291Z,13.43
2019-01-14T22:34:44.135Z,13.00
2019-01-14T22:36:59.881Z,8.70
2019-01-14T22:39:15.774Z,14.90
2019-01-14T22:41:32.085Z,10.70
2019-01-14T22:43:47.700Z,11.70
2019-01-14T22:46:03.894Z,10.50
2019-01-14T22:48:19.542Z,9.80
2019-01-14T22:50:35.393Z,8.47
2019-01-14T22:52:51.828Z,10.23
2019-01-14T22:55:08.089Z,6.47
2019-01-14T22:57:28.901Z,11.93
2019-01-14T22:59:45.796Z,19.80
2019-01-14T23:02:02.593Z,16.33
2019-01-14T23:04:18.421Z,11.60
2019-01-14T23:06:32.874Z,14.23
2019-01-14T23:08:56.716Z,7.40
2019-01-14T23:11:20.619Z,6.83
2019-01-14T23:13:56.558Z,12.53
2019-01-14T23:16:22.089Z,14.83
2019-01-14T23:18:35.824Z,11.17
2019-01-14T23:20:59.311Z,18.20
2019-01-14T23:23:22.381Z,27.70
2019-01-14T23:25:46.137Z,13.00
2019-01-14T23:28:10.312Z,17.10
2019-01-14T23:30:33.577Z,13.43
2019-01-14T23:32:57.733Z,14.70
2019-01-14T23:35:21.932Z,12.73
2019-01-14T23:42:59.337Z,8.38
2019-01-14T23:53:26.329Z,18.77
2019-01-14T23:58:20.224Z,13.27
